This is the latest recevied weather packets stored in our database for station/object N1KM-15. If no packets are shown the sender has not sent any weather packets the latest 10 day(s).
| Time | Temp. | Humidity | Pressure | Rain* | Wind** | Luminosity | Snow |
|---|---|---|---|---|---|---|---|
| 1777671000 | 17.78° C | 37% | 1007 hPa | 0 mm | - | - | - |
| 1777670100 | 18.33° C | 34% | 1006.7 hPa | 0 mm | - | - | - |
| 1777669200 | 17.78° C | 39% | 1006.7 hPa | 0 mm | - | - | - |
| 1777668300 | 17.78° C | 39% | 1006.6 hPa | 0 mm | - | - | - |
| 1777667400 | 16.67° C | 42% | 1006.7 hPa | 0 mm | - | - | - |
| 1777666500 | 17.22° C | 45% | 1007 hPa | 0 mm | - | - | - |
| 1777665600 | 17.78° C | 36% | 1006.6 hPa | 0 mm | - | - | - |
| 1777664700 | 17.78° C | 38% | 1006.3 hPa | 0 mm | - | - | - |
| 1777663800 | 17.78° C | 37% | 1006.3 hPa | 0 mm | - | - | - |
| 1777662900 | 17.22° C | 39% | 1006.4 hPa | 0 mm | - | - | - |
| 1777662000 | 16.67° C | 40% | 1006.5 hPa | 0 mm | - | - | - |
| 1777661100 | 16.11° C | 43% | 1007.8 hPa | 0 mm | - | - | - |
| 1777660200 | 16.67° C | 41% | 1006.6 hPa | 0 mm | - | - | - |
| 1777659300 | 17.22° C | 39% | 1007.2 hPa | 0 mm | - | - | - |
| 1777658400 | 16.67° C | 44% | 1006.9 hPa | 0 mm | - | - | - |
| 1777657500 | 16.67° C | 42% | 1007 hPa | 0 mm | - | - | - |
| 1777656600 | 16.11° C | 43% | 1007.2 hPa | 0 mm | - | - | - |
| 1777655700 | 15.56° C | 48% | 1007.2 hPa | 0 mm | - | - | - |
| 1777654800 | 15.56° C | 49% | 1007.5 hPa | 0 mm | - | - | - |
| 1777653901 | 15° C | 47% | 1007.3 hPa | 0 mm | - | - | - |
| 1777653000 | 13.89° C | 54% | 1008 hPa | 0 mm | - | - | - |
| 1777652100 | 14.44° C | 51% | 1007.9 hPa | 0 mm | - | - | - |
| 1777651200 | 14.44° C | 48% | 1007.6 hPa | 0 mm | - | - | - |
| 1777650300 | 13.89° C | 54% | 1007.5 hPa | 0 mm | - | - | - |
| 1777649400 | 13.89° C | 54% | 1007.9 hPa | 0 mm | - | - | - |
* Rain since midnight (hover to see other rain measurements)
** Current wind speed in m/s (hover to see current wind gust speed)